Time;durP1;ratioP1;P1;durP2;ratioP2;P2;SDS_P1;SDS_P2;PMS_P1;PMS_P2;Temp;Humidity;BMP_temperature;BMP_pressure;BME280_temperature;BME280_humidity;BME280_pressure;Samples;Min_cycle;Max_cycle;Signal;HPM_P1;HPM_P2
2022/11/21 01:40:28;;;;;;;36.58;12.73;;;;;;;2.47;59.31;99102.56;4411644;32;20066;-96
2022/11/21 01:43:11;;;;;;;34.13;13.77;;;;;;;2.43;59.30;99116.31;4385405;32;20101;-96
2022/11/21 01:45:56;;;;;;;33.13;12.52;;;;;;;2.66;59.32;99106.66;4380860;32;20138;-96
2022/11/21 01:48:31;;;;;;;36.08;13.30;;;;;;;2.60;59.32;99110.97;4382536;32;20102;-96
2022/11/21 01:51:00;;;;;;;28.85;11.63;;;;;;;2.57;59.31;99111.88;4376406;32;20107;-96
2022/11/21 01:53:25;;;;;;;31.90;12.15;;;;;;;2.57;59.31;99109.28;4376686;32;20087;-96
2022/11/21 01:55:51;;;;;;;28.17;11.88;;;;;;;2.45;59.31;99109.44;4364165;32;20168;-96
2022/11/21 01:58:18;;;;;;;29.40;10.73;;;;;;;2.44;59.31;99098.31;4370414;32;20153;-96
2022/11/21 02:00:44;;;;;;;27.62;11.00;;;;;;;2.25;59.30;99104.47;4361030;32;20082;-96
2022/11/21 02:03:34;;;;;;;;;;;;;;;;;;;;;
2022/11/21 02:06:52;;;;;;;;;;;;;;;;;;;;;
2022/11/21 04:36:18;;;;;;;36.53;13.07;;;;;;;1.78;59.27;99025.31;4638951;26;20353;-95
2022/11/21 04:39:20;;;;;;;33.10;13.23;;;;;;;1.83;59.28;99011.56;4345964;33;20103;-96
2022/11/21 04:41:54;;;;;;;31.83;12.60;;;;;;;1.77;59.27;99009.06;4348694;32;20833;-96
2022/11/21 04:44:25;;;;;;;35.85;13.52;;;;;;;1.82;59.27;99009.03;4360047;32;20087;-96
2022/11/21 04:46:53;;;;;;;35.47;14.00;;;;;;;1.94;59.28;99000.38;4354700;32;20203;-96
2022/11/21 04:49:19;;;;;;;43.10;15.27;;;;;;;1.89;59.27;99002.09;4341082;33;20465;-96
2022/11/21 04:51:44;;;;;;;37.63;14.73;;;;;;;1.80;59.27;99000.50;4350612;32;20095;-96
2022/11/21 04:54:10;;;;;;;43.08;15.50;;;;;;;1.87;59.28;98991.84;4334272;32;20113;-96
2022/11/21 04:56:35;;;;;;;39.22;15.50;;;;;;;1.99;59.29;98990.91;4341095;32;20135;-96
2022/11/21 04:59:03;;;;;;;44.17;15.82;;;;;;;2.15;59.29;98997.59;4340807;32;20126;-96
2022/11/21 05:21:35;;;;;;;;;;;;;;;;;;;;;
2022/11/21 05:51:12;;;;;;;51.40;13.90;;;;;;;3.00;59.34;98985.44;4397567;32;20130;-95
2022/11/21 05:53:37;;;;;;;154.98;17.52;;;;;;;3.05;59.34;98996.50;4362974;32;20105;-94
2022/11/21 05:56:13;;;;;;;72.85;15.88;;;;;;;3.04;59.34;98994.78;4348429;32;20145;-92
2022/11/21 06:05:19;;;;;;;48.40;14.30;;;;;;;3.16;59.35;99004.06;4393985;32;20129;-94
2022/11/21 06:07:45;;;;;;;101.22;17.08;;;;;;;3.08;59.34;99007.63;4372694;32;20103;-91
2022/11/21 06:10:10;;;;;;;85.55;15.30;;;;;;;3.22;59.35;98998.84;4351747;32;20161;-93
2022/11/21 06:13:35;;;;;;;;;;;;;;;;;;;;;
2022/11/21 06:20:44;;;;;;;;;;;;;;;;;;;;;
2022/11/21 06:23:31;;;;;;;;;;;;;;;;;;;;;
2022/11/21 06:26:36;;;;;;;38.58;11.40;;;;;;;3.23;59.35;99003.09;4328276;32;36398;-94
2022/11/21 06:29:37;;;;;;;;;;;;;;;;;;;;;
2022/11/21 06:32:36;;;;;;;;;;;;;;;;;;;;;
2022/11/21 06:35:12;;;;;;;118.82;12.20;;;;;;;3.22;59.35;99003.97;4370782;32;35935;-92
2022/11/21 06:37:40;;;;;;;129.27;16.00;;;;;;;2.84;59.33;99014.78;4367383;32;20082;-93
2022/11/21 06:40:14;;;;;;;87.32;13.52;;;;;;;3.17;59.36;99008.34;4356646;32;20113;-93
2022/11/21 06:42:45;;;;;;;73.10;13.35;;;;;;;3.00;59.34;99014.56;4355024;32;20122;-94
2022/11/21 06:48:44;;;;;;;73.25;13.23;;;;;;;2.95;59.33;99028.34;4359439;32;20087;-95
2022/11/21 06:51:31;;;;;;;;;;;;;;;;;;;;;
2022/11/21 06:54:04;;;;;;;57.95;11.50;;;;;;;2.86;59.33;99037.03;4358123;32;35738;-91
2022/11/21 06:56:30;;;;;;;109.22;15.80;;;;;;;2.91;59.33;99037.81;4338297;32;20472;-91
2022/11/21 06:58:55;;;;;;;67.68;13.07;;;;;;;3.08;59.34;99038.47;4338590;32;20122;-92
2022/11/21 07:01:21;;;;;;;47.70;14.98;;;;;;;3.21;59.36;99041.72;4352536;32;20412;-92
2022/11/21 07:03:46;;;;;;;75.78;16.08;;;;;;;3.08;59.34;99040.19;4336850;32;20106;-92
2022/11/21 07:06:12;;;;;;;53.05;12.95;;;;;;;3.09;59.34;99044.47;4351807;32;20483;-92
2022/11/21 07:08:39;;;;;;;68.78;14.35;;;;;;;3.12;59.35;99041.00;4346482;32;20142;-93
2022/11/21 07:11:07;;;;;;;47.80;12.88;;;;;;;3.31;59.36;99043.28;4339950;32;20176;-92
2022/11/21 07:13:32;;;;;;;61.40;14.52;;;;;;;3.37;59.36;99048.34;4338532;32;20103;-92
2022/11/21 07:16:06;;;;;;;74.93;15.10;;;;;;;3.42;59.36;99045.69;4335184;32;20110;-91
2022/11/21 07:18:32;;;;;;;53.72;12.70;;;;;;;3.60;59.37;99047.16;4331600;32;20154;-92
2022/11/21 07:20:58;;;;;;;55.80;13.65;;;;;;;3.58;59.37;99046.34;4349631;32;20161;-92
2022/11/21 07:23:24;;;;;;;44.45;12.50;;;;;;;3.68;59.38;99043.59;4348563;32;20103;-91
2022/11/21 07:25:49;;;;;;;59.72;13.18;;;;;;;3.58;59.37;99051.47;4339037;32;20162;-91
2022/11/21 07:28:14;;;;;;;55.80;12.90;;;;;;;3.63;59.38;99047.97;4327050;33;23773;-93
2022/11/21 07:30:43;;;;;;;36.13;10.45;;;;;;;3.46;59.38;99047.34;4346159;32;20189;-91
2022/11/21 07:33:08;;;;;;;45.47;10.77;;;;;;;3.61;59.38;99046.28;4338932;32;20122;-91
2022/11/21 07:35:34;;;;;;;50.63;11.90;;;;;;;3.57;59.38;99042.06;4348231;32;20225;-91
2022/11/21 07:37:59;;;;;;;45.03;11.35;;;;;;;3.65;59.38;99043.63;4337569;32;20117;-91
2022/11/21 07:40:25;;;;;;;48.47;11.88;;;;;;;3.63;59.38;99044.53;4349993;32;20380;-92
2022/11/21 07:42:50;;;;;;;35.35;10.38;;;;;;;3.61;59.38;99042.00;4348086;32;20472;-92
2022/11/21 07:45:16;;;;;;;45.80;12.37;;;;;;;3.67;59.38;99036.75;4363285;32;20185;-92
2022/11/21 07:47:41;;;;;;;63.92;13.50;;;;;;;3.67;59.38;99035.88;4348524;32;20349;-92
2022/11/21 07:50:07;;;;;;;32.75;12.63;;;;;;;3.58;59.37;99029.16;4336441;32;20119;-92
2022/11/21 07:52:33;;;;;;;28.70;11.88;;;;;;;3.67;59.38;99041.03;4351655;33;20115;-92
2022/11/21 07:55:01;;;;;;;45.38;11.57;;;;;;;3.89;59.39;99041.53;4335747;32;25946;-93
2022/11/21 07:57:27;;;;;;;24.35;10.50;;;;;;;4.14;59.41;99044.56;4336680;32;20779;-92
2022/11/21 07:59:55;;;;;;;52.15;13.05;;;;;;;4.34;59.41;99045.06;4337958;32;21130;-93
2022/11/21 08:02:21;;;;;;;40.40;11.57;;;;;;;4.38;59.42;99048.44;4347947;33;20115;-92
2022/11/21 08:04:47;;;;;;;26.30;11.40;;;;;;;4.38;59.42;99051.84;4336363;32;20161;-93
2022/11/21 08:07:13;;;;;;;61.55;12.63;;;;;;;4.33;59.42;99058.81;4349662;32;20115;-92
2022/11/21 08:09:39;;;;;;;41.65;13.60;;;;;;;4.55;59.43;99062.69;4329993;32;20214;-92
2022/11/21 08:12:14;;;;;;;30.73;13.45;;;;;;;4.37;59.42;99060.47;4342514;32;20488;-92
2022/11/21 08:14:40;;;;;;;53.28;15.38;;;;;;;4.54;59.43;99065.31;4337320;32;20476;-92
2022/11/21 08:17:05;;;;;;;32.28;13.38;;;;;;;4.57;59.42;99072.97;4328253;32;20149;-92
2022/11/21 08:19:39;;;;;;;33.30;13.35;;;;;;;4.66;59.44;99069.38;4337000;32;20095;-92
2022/11/21 08:22:25;;;;;;;;;;;;;;;;;;;;;
2022/11/21 08:25:24;;;;;;;;;;;;;;;;;;;;;
2022/11/21 08:28:51;;;;;;;;;;;;;;;;;;;;;
2022/11/21 08:45:38;;;;;;;21.62;10.35;;;;;;;5.38;59.47;99079.91;4277311;28;20139;-96
2022/11/21 08:48:04;;;;;;;21.23;10.40;;;;;;;5.43;59.48;99082.41;4262241;33;20685;-96
2022/11/21 08:50:30;;;;;;;20.70;9.98;;;;;;;5.15;59.46;99083.00;4351232;32;20474;-96
2022/11/21 08:53:00;;;;;;;19.52;9.95;;;;;;;5.14;59.46;99081.28;4357390;32;20970;-95
2022/11/21 08:55:25;;;;;;;19.83;10.07;;;;;;;5.07;59.46;99076.28;4335562;32;20071;-96
2022/11/21 08:57:51;;;;;;;19.77;9.60;;;;;;;5.15;59.46;99087.28;4379698;32;20501;-96
2022/11/21 09:00:16;;;;;;;18.25;8.65;;;;;;;4.86;59.44;99080.16;4373204;32;20233;-96
2022/11/21 09:02:42;;;;;;;17.33;8.50;;;;;;;4.58;59.43;99080.69;4351960;32;20117;-96
2022/11/21 09:05:08;;;;;;;26.60;10.73;;;;;;;4.43;59.43;99091.25;4359057;32;20104;-96
2022/11/21 09:07:33;;;;;;;17.42;8.63;;;;;;;4.28;59.42;99088.97;4353974;32;20111;-96
2022/11/21 09:09:59;;;;;;;22.55;10.02;;;;;;;4.26;59.40;99099.31;4369206;32;20150;-96
2022/11/21 09:12:24;;;;;;;22.80;9.55;;;;;;;3.79;59.39;99094.06;4377700;32;20122;-96
2022/11/21 09:20:18;;;;;;;28.55;10.50;;;;;;;4.17;59.40;99094.28;4375639;32;20116;-96
2022/11/21 09:22:43;;;;;;;25.65;10.93;;;;;;;4.18;59.41;99089.97;4371558;32;20078;-96
2022/11/21 09:25:08;;;;;;;24.02;10.18;;;;;;;4.27;59.42;99082.12;4374526;32;20152;-96
2022/11/21 09:27:34;;;;;;;22.20;9.77;;;;;;;4.23;59.41;99077.88;4363947;32;20122;-96
2022/11/21 09:29:59;;;;;;;18.60;9.90;;;;;;;4.33;59.41;99079.44;4352955;32;20137;-96
2022/11/21 09:32:25;;;;;;;21.62;9.52;;;;;;;4.47;59.42;99080.00;4369224;32;20110;-94
2022/11/21 09:34:50;;;;;;;23.77;10.95;;;;;;;4.43;59.43;99086.09;4347571;32;20130;-96
2022/11/21 09:37:16;;;;;;;18.40;9.18;;;;;;;4.55;59.43;99079.91;4360763;32;20390;-96
2022/11/21 09:39:41;;;;;;;21.45;9.55;;;;;;;4.56;59.43;99076.44;4361498;32;20099;-96
2022/11/21 09:42:35;;;;;;;20.27;9.85;;;;;;;4.66;59.44;99079.69;4359930;32;20140;-96
2022/11/21 09:45:12;;;;;;;20.92;9.68;;;;;;;4.61;59.43;99087.50;4355705;32;20099;-96
2022/11/21 09:47:42;;;;;;;22.13;9.63;;;;;;;4.65;59.42;99078.84;4352192;32;20099;-96
2022/11/21 09:50:13;;;;;;;18.87;9.90;;;;;;;4.66;59.44;99084.84;4352810;32;20154;-96
2022/11/21 09:52:42;;;;;;;21.42;9.93;;;;;;;4.73;59.44;99082.12;4364070;32;20161;-96
2022/11/21 09:55:31;;;;;;;26.17;10.77;;;;;;;4.88;59.45;99074.09;4336954;32;20106;-95
2022/11/21 09:57:57;;;;;;;21.95;8.55;;;;;;;4.86;59.44;99070.69;4342791;33;20119;-96
2022/11/21 10:00:23;;;;;;;24.65;9.77;;;;;;;4.75;59.44;99077.78;4338358;32;20126;-96
2022/11/21 10:02:49;;;;;;;19.15;9.13;;;;;;;4.77;59.44;99067.44;4349902;32;20099;-96
2022/11/21 10:05:18;;;;;;;19.00;9.48;;;;;;;4.79;59.45;99076.00;4339042;32;20162;-96
2022/11/21 10:07:44;;;;;;;21.90;9.55;;;;;;;4.85;59.44;99066.41;4351842;32;20131;-95
2022/11/21 10:10:16;;;;;;;23.15;9.95;;;;;;;4.95;59.46;99061.91;4335220;32;20484;-96
2022/11/21 10:13:10;;;;;;;21.35;9.73;;;;;;;5.04;59.46;99066.06;4375993;32;20939;-94
2022/11/21 10:15:39;;;;;;;16.10;8.07;;;;;;;4.89;59.45;99062.87;4348920;32;20487;-94
2022/11/21 10:18:21;;;;;;;20.00;9.85;;;;;;;5.15;59.46;99058.91;4360756;32;20154;-94
2022/11/21 10:20:49;;;;;;;17.17;8.05;;;;;;;5.34;59.47;99051.62;4360117;32;20094;-95
2022/11/21 10:23:22;;;;;;;18.90;8.20;;;;;;;5.52;59.48;99043.50;4355966;32;20177;-95
2022/11/21 10:26:08;;;;;;;20.92;9.07;;;;;;;5.59;59.49;99045.03;4362398;32;20094;-95
2022/11/21 10:28:45;;;;;;;19.17;10.35;;;;;;;5.80;59.50;99031.63;4335858;32;20076;-95
2022/11/21 10:31:11;;;;;;;17.80;9.40;;;;;;;6.04;59.51;99026.78;4357686;32;20166;-95
2022/11/21 10:33:39;;;;;;;16.67;8.05;;;;;;;6.12;59.51;99020.50;4350558;32;20234;-95
2022/11/21 10:36:10;;;;;;;16.62;8.50;;;;;;;6.46;59.53;99015.31;4350650;32;20751;-96
2022/11/21 10:38:37;;;;;;;15.75;9.10;;;;;;;6.62;59.54;99017.47;4375634;32;20107;-94
2022/11/21 10:41:04;;;;;;;18.05;8.32;;;;;;;6.70;59.55;99005.19;4350689;32;20137;-95
2022/11/21 10:46:24;;;;;;;16.45;8.45;;;;;;;7.07;59.57;99007.53;4363211;32;20475;-96
2022/11/21 10:48:55;;;;;;;15.45;8.27;;;;;;;7.17;59.57;99000.38;4357564;32;23017;-95
2022/11/21 10:51:46;;;;;;;16.35;7.75;;;;;;;7.34;59.58;99003.31;4350916;32;20067;-95
2022/11/21 10:54:31;;;;;;;15.48;7.85;;;;;;;7.53;59.59;98994.03;4365121;32;20449;-95
2022/11/21 10:57:14;;;;;;;15.20;7.65;;;;;;;7.71;59.61;98997.78;4356569;32;20118;-96
2022/11/21 10:59:40;;;;;;;14.38;7.95;;;;;;;7.59;59.60;98998.19;4365376;32;20110;-96
2022/11/21 11:02:11;;;;;;;13.88;8.13;;;;;;;7.54;59.59;99000.06;4365057;32;20148;-95
2022/11/21 11:04:37;;;;;;;17.73;8.27;;;;;;;7.73;59.60;98990.81;4365079;32;20113;-95
2022/11/21 11:07:34;;;;;;;13.98;8.00;;;;;;;7.68;59.60;99006.50;4362682;32;20095;-95
2022/11/21 11:10:22;;;;;;;14.77;7.72;;;;;;;7.78;59.61;98998.44;4327538;32;21595;-95
2022/11/21 11:15:32;;;;;;;19.12;8.43;;;;;;;7.87;59.62;98990.38;4367575;32;20121;-96
2022/11/21 11:17:59;;;;;;;19.50;7.93;;;;;;;8.18;59.63;98992.78;4364299;32;20480;-96
2022/11/21 11:20:32;;;;;;;14.80;7.62;;;;;;;8.14;59.62;98991.19;4362773;32;20095;-94
2022/11/21 11:22:58;;;;;;;17.25;7.60;;;;;;;8.32;59.64;98988.81;4365587;32;20076;-93
2022/11/21 11:25:23;;;;;;;13.82;7.93;;;;;;;8.30;59.64;98975.06;4353334;32;20123;-95
2022/11/21 11:27:48;;;;;;;15.23;7.70;;;;;;;8.26;59.63;98985.56;4355604;32;20084;-95
2022/11/21 11:30:15;;;;;;;17.58;8.68;;;;;;;8.53;59.65;98973.44;4364290;32;23740;-94
2022/11/21 11:32:41;;;;;;;16.92;10.10;;;;;;;8.68;59.66;98977.19;4365705;32;20098;-94
2022/11/21 11:35:12;;;;;;;17.35;9.23;;;;;;;8.73;59.65;98970.94;4354098;32;20189;-95
2022/11/21 11:37:41;;;;;;;15.70;8.95;;;;;;;8.71;59.66;98970.13;4375695;32;20078;-96
2022/11/21 11:40:30;;;;;;;22.97;10.57;;;;;;;8.96;59.67;98967.47;4366423;32;20115;-95
2022/11/21 11:52:48;;;;;;;22.85;10.60;;;;;;;9.29;59.70;98957.56;4372380;32;20157;-95
2022/11/21 11:55:28;;;;;;;15.40;8.48;;;;;;;9.25;59.69;98940.41;4375309;32;20099;-96
2022/11/21 11:57:54;;;;;;;17.52;7.78;;;;;;;9.27;59.69;98948.97;4365571;32;20107;-96
2022/11/21 12:00:19;;;;;;;15.13;8.35;;;;;;;9.20;59.69;98940.56;4356301;32;20110;-96
2022/11/21 12:03:07;;;;;;;14.82;8.45;;;;;;;9.53;59.70;98932.34;4375416;32;20189;-96
2022/11/21 12:05:32;;;;;;;16.02;7.68;;;;;;;9.61;59.71;98919.03;4363964;32;20158;-96
2022/11/21 12:08:14;;;;;;;19.08;8.73;;;;;;;9.66;59.71;98924.88;4356679;32;20170;-95
2022/11/21 12:13:37;;;;;;;16.12;8.32;;;;;;;9.85;59.72;98915.41;4368742;32;20153;-95
2022/11/21 12:16:04;;;;;;;14.77;7.60;;;;;;;9.59;59.71;98915.66;4366180;32;20485;-95
2022/11/21 12:18:33;;;;;;;22.10;8.45;;;;;;;9.77;59.71;98909.72;4356015;32;20068;-95
2022/11/21 12:21:04;;;;;;;16.37;8.88;;;;;;;9.83;59.72;98910.28;4353935;32;20107;-95
2022/11/21 12:23:34;;;;;;;16.58;9.35;;;;;;;9.78;59.71;98914.00;4366214;32;20103;-96
2022/11/21 12:26:08;;;;;;;17.58;9.13;;;;;;;10.01;59.73;98908.66;4352614;32;20137;-94
2022/11/21 12:29:03;;;;;;;19.80;10.25;;;;;;;10.06;59.73;98906.69;4366766;32;20099;-95
2022/11/21 12:31:37;;;;;;;24.60;11.80;;;;;;;10.30;59.74;98904.81;4363017;32;20091;-94
2022/11/21 12:34:16;;;;;;;25.50;13.43;;;;;;;10.43;59.75;98897.31;4377910;32;20111;-95
2022/11/21 12:36:47;;;;;;;25.42;14.35;;;;;;;10.46;59.75;98902.38;4365803;32;20118;-95
2022/11/21 12:39:27;;;;;;;29.35;15.50;;;;;;;10.53;59.75;98897.75;4365922;32;20531;-95
2022/11/21 12:45:03;;;;;;;21.95;12.00;;;;;;;10.38;59.75;98891.47;4366404;32;20093;-95
2022/11/21 12:54:28;;;;;;;20.23;10.07;;;;;;;10.47;59.75;98885.00;4360533;32;20092;-95
2022/11/21 12:56:13;;;;;;;15.13;7.85;;;;;;;10.45;59.75;98887.69;4381354;32;20093;-96
2022/11/21 12:58:39;;;;;;;12.85;7.03;;;;;;;10.27;59.74;98896.31;4358358;32;20774;-95
2022/11/21 13:01:28;;;;;;;12.98;7.28;;;;;;;10.24;59.74;98893.84;4354319;32;20138;-96
2022/11/21 13:04:21;;;;;;;11.32;7.05;;;;;;;10.14;59.73;98904.59;4350886;32;20087;-95
2022/11/21 13:06:47;;;;;;;15.07;8.48;;;;;;;10.26;59.75;98903.25;4360225;32;20155;-95
2022/11/21 13:09:18;;;;;;;17.55;8.45;;;;;;;10.10;59.74;98900.44;4354215;32;20098;-95
2022/11/21 13:12:04;;;;;;;14.45;8.32;;;;;;;10.04;59.74;98902.47;4349002;32;20091;-95
2022/11/21 13:14:33;;;;;;;13.65;7.30;;;;;;;9.91;59.72;98906.50;4358249;32;20055;-94
2022/11/21 13:17:22;;;;;;;13.62;7.80;;;;;;;9.95;59.73;98906.34;4371545;32;20123;-95
2022/11/21 13:20:01;;;;;;;15.60;7.78;;;;;;;9.79;59.71;98903.53;4367535;32;20137;-95
2022/11/21 13:22:35;;;;;;;15.15;8.07;;;;;;;9.76;59.72;98898.47;4354554;32;20105;-95
2022/11/21 13:25:07;;;;;;;14.93;8.18;;;;;;;9.61;59.71;98904.28;4375875;32;20063;-95
2022/11/21 13:27:39;;;;;;;13.05;7.65;;;;;;;9.61;59.71;98901.69;4363722;32;20100;-95
2022/11/21 13:30:08;;;;;;;16.80;8.18;;;;;;;9.57;59.71;98910.53;4347830;32;20122;-96
2022/11/21 13:32:44;;;;;;;11.07;6.87;;;;;;;9.49;59.71;98915.22;4362046;32;20086;-95
2022/11/21 13:35:18;;;;;;;14.87;7.80;;;;;;;9.48;59.70;98919.56;4353837;32;20086;-95
2022/11/21 13:38:03;;;;;;;11.93;6.97;;;;;;;9.64;59.71;98921.50;4367852;32;20705;-95
2022/11/21 13:40:31;;;;;;;13.38;7.75;;;;;;;9.56;59.70;98921.84;4365974;32;20115;-96
2022/11/21 13:43:09;;;;;;;15.88;7.87;;;;;;;9.51;59.70;98922.03;4369979;32;20157;-95
2022/11/21 13:45:42;;;;;;;12.48;6.95;;;;;;;9.23;59.69;98924.91;4365771;32;20095;-95
2022/11/21 13:48:20;;;;;;;11.05;6.43;;;;;;;9.28;59.69;98929.91;4363953;32;20173;-95
2022/11/21 13:50:57;;;;;;;10.82;6.10;;;;;;;9.20;59.69;98934.53;4377181;32;20753;-96
2022/11/21 13:54:04;;;;;;;12.57;6.45;;;;;;;9.07;59.68;98925.56;4366935;32;20153;-96
2022/11/21 13:56:58;;;;;;;10.27;5.90;;;;;;;8.93;59.67;98926.06;4356165;32;20090;-96
2022/11/21 13:59:56;;;;;;;11.95;6.55;;;;;;;8.74;59.65;98925.06;4363638;32;20134;-95
2022/11/21 14:02:27;;;;;;;10.02;5.90;;;;;;;8.56;59.65;98924.03;4363979;32;20149;-95
2022/11/21 14:05:02;;;;;;;14.13;5.87;;;;;;;8.50;59.65;98924.22;4365764;32;20094;-95
2022/11/21 14:07:34;;;;;;;11.10;6.43;;;;;;;8.26;59.63;98937.16;4376665;32;20084;-96
2022/11/21 14:10:01;;;;;;;13.15;6.28;;;;;;;8.15;59.63;98936.69;4354051;32;20090;-96
2022/11/21 14:12:32;;;;;;;12.48;6.53;;;;;;;7.94;59.62;98935.69;4351320;32;20111;-95
2022/11/21 14:15:00;;;;;;;11.60;6.85;;;;;;;8.04;59.62;98936.22;4361030;32;20078;-95
2022/11/21 14:17:43;;;;;;;12.48;7.50;;;;;;;8.23;59.63;98936.41;4363475;32;20099;-96
2022/11/21 14:20:18;;;;;;;11.32;6.40;;;;;;;7.97;59.62;98938.19;4366109;32;20107;-96
2022/11/21 14:23:02;;;;;;;14.13;7.70;;;;;;;8.23;59.64;98932.06;4378646;32;20102;-96
2022/11/21 14:25:39;;;;;;;14.45;7.50;;;;;;;8.21;59.63;98933.87;4365984;32;20118;-95
2022/11/21 14:28:08;;;;;;;16.87;8.23;;;;;;;8.34;59.64;98931.75;4366488;32;20106;-96
2022/11/21 14:30:35;;;;;;;13.13;7.10;;;;;;;8.15;59.63;98931.50;4354527;32;20217;-96
2022/11/21 14:33:33;;;;;;;12.70;7.62;;;;;;;8.23;59.64;98946.78;4354422;32;20177;-95
2022/11/21 14:35:59;;;;;;;11.77;6.55;;;;;;;8.29;59.63;98949.19;4366592;32;20167;-95
2022/11/21 14:38:25;;;;;;;14.13;7.25;;;;;;;8.19;59.63;98935.69;4358480;32;20113;-96
2022/11/21 14:40:56;;;;;;;13.25;6.93;;;;;;;8.21;59.63;98940.81;4369406;32;20185;-95
2022/11/21 14:43:30;;;;;;;14.38;7.32;;;;;;;8.30;59.64;98949.13;4364480;32;20126;-96
2022/11/21 14:45:55;;;;;;;13.85;6.85;;;;;;;8.08;59.63;98949.94;4368237;32;20062;-96
2022/11/21 14:48:30;;;;;;;13.35;7.40;;;;;;;7.98;59.62;98949.37;4361833;32;20166;-96
2022/11/21 14:50:57;;;;;;;12.45;6.95;;;;;;;7.83;59.61;98944.75;4361639;32;20095;-96
2022/11/21 14:53:25;;;;;;;12.65;7.07;;;;;;;7.73;59.61;98938.16;4358989;32;20066;-96
2022/11/21 14:55:51;;;;;;;13.65;8.65;;;;;;;7.77;59.61;98945.78;4369593;32;20093;-96
2022/11/21 14:58:18;;;;;;;13.55;7.32;;;;;;;7.70;59.61;98947.72;4357063;32;20081;-96
2022/11/21 15:01:07;;;;;;;16.20;8.27;;;;;;;7.77;59.62;98957.87;4359573;32;20075;-95
2022/11/21 15:03:32;;;;;;;17.02;8.02;;;;;;;7.71;59.61;98951.16;4357953;32;20111;-96
2022/11/21 15:06:04;;;;;;;15.77;7.53;;;;;;;7.71;59.60;98953.75;4369134;32;20090;-96
2022/11/21 15:08:31;;;;;;;15.70;8.07;;;;;;;7.63;59.61;98960.94;4353607;32;20168;-95
2022/11/21 15:10:57;;;;;;;13.75;7.00;;;;;;;7.53;59.59;98957.78;4344972;32;20693;-96
2022/11/21 15:13:24;;;;;;;13.77;7.10;;;;;;;7.54;59.59;98956.87;4353570;32;20101;-96
2022/11/21 15:15:51;;;;;;;15.00;7.65;;;;;;;7.46;59.59;98958.03;4346031;32;20114;-96
2022/11/21 15:18:24;;;;;;;13.70;7.95;;;;;;;7.39;59.58;98960.00;4368534;32;20094;-96
2022/11/21 15:20:51;;;;;;;13.00;7.15;;;;;;;7.50;59.60;98965.66;4356551;32;20154;-96
2022/11/21 15:23:34;;;;;;;15.25;7.50;;;;;;;7.47;59.60;98968.34;4361695;32;20071;-96
2022/11/21 15:25:59;;;;;;;15.82;7.93;;;;;;;7.46;59.59;98976.16;4359166;32;20070;-96
2022/11/21 15:28:25;;;;;;;14.23;7.22;;;;;;;7.58;59.59;98976.62;4356772;32;20129;-96
2022/11/21 15:31:13;;;;;;;18.00;8.48;;;;;;;7.59;59.60;98983.50;4352242;32;20107;-96
2022/11/21 15:34:01;;;;;;;12.88;7.62;;;;;;;7.71;59.61;98982.25;4381454;32;20093;-96
2022/11/21 15:36:28;;;;;;;15.05;8.02;;;;;;;7.71;59.60;98987.44;4366327;32;20086;-96
2022/11/21 15:38:59;;;;;;;12.57;6.97;;;;;;;7.77;59.62;98988.97;4346682;32;20760;-96
2022/11/21 15:41:32;;;;;;;15.90;8.75;;;;;;;7.64;59.60;98984.19;4367985;32;20114;-96
2022/11/21 15:44:00;;;;;;;15.07;8.57;;;;;;;7.65;59.60;98985.91;4356655;32;20103;-95
2022/11/21 15:46:27;;;;;;;16.83;9.05;;;;;;;7.74;59.60;98989.06;4367762;32;20090;-96
2022/11/21 15:48:56;;;;;;;27.35;12.60;;;;;;;7.84;59.60;98990.47;4365055;32;20773;-95
2022/11/21 15:51:36;;;;;;;25.95;11.30;;;;;;;7.79;59.61;98998.38;4351585;32;20098;-96
2022/11/21 15:54:01;;;;;;;23.30;11.95;;;;;;;7.71;59.61;98995.19;4368411;32;20123;-96
2022/11/21 15:56:27;;;;;;;19.37;10.38;;;;;;;7.61;59.59;98981.72;4366633;32;20087;-96
2022/11/21 15:58:53;;;;;;;20.75;10.98;;;;;;;7.62;59.61;98982.56;4356309;32;20113;-96
2022/11/21 16:01:20;;;;;;;24.40;11.50;;;;;;;7.79;59.61;98987.16;4380882;32;20151;-96
2022/11/21 16:03:54;;;;;;;21.08;10.23;;;;;;;7.85;59.62;98977.47;4368414;32;20125;-96
2022/11/21 16:06:20;;;;;;;20.25;11.75;;;;;;;7.75;59.61;98972.63;4347068;32;20095;-95
2022/11/21 16:08:46;;;;;;;19.20;10.35;;;;;;;7.85;59.62;98977.47;4368171;32;20095;-96
2022/11/21 16:11:32;;;;;;;21.83;11.23;;;;;;;7.74;59.61;98955.41;4362710;32;20452;-96
2022/11/21 16:13:59;;;;;;;16.48;9.65;;;;;;;7.73;59.61;98956.28;4367300;32;20106;-96
2022/11/21 16:16:29;;;;;;;18.17;10.40;;;;;;;7.84;59.62;98939.50;4358939;32;20089;-95
2022/11/21 16:18:55;;;;;;;21.45;10.57;;;;;;;7.78;59.61;98933.66;4352892;32;20087;-96
2022/11/21 16:21:21;;;;;;;28.75;16.58;;;;;;;8.08;59.63;98934.37;4355190;32;20137;-96
2022/11/21 16:23:46;;;;;;;27.27;14.82;;;;;;;8.19;59.63;98948.66;4357699;32;20170;-95
2022/11/21 16:26:14;;;;;;;25.27;13.52;;;;;;;8.02;59.62;98953.56;4350548;32;20102;-96
2022/11/21 16:28:40;;;;;;;23.67;13.20;;;;;;;7.64;59.60;98949.69;4353508;32;20060;-96
2022/11/21 16:31:05;;;;;;;30.90;15.20;;;;;;;7.38;59.59;98951.38;4367353;32;20137;-96
2022/11/21 16:33:31;;;;;;;24.17;13.65;;;;;;;7.44;59.59;98945.16;4359510;32;20111;-96
2022/11/21 16:35:58;;;;;;;25.12;14.27;;;;;;;7.57;59.60;98946.47;4345991;32;20121;-96
2022/11/21 16:38:26;;;;;;;27.48;12.90;;;;;;;7.26;59.58;98943.13;4382271;32;20684;-95
2022/11/21 16:41:00;;;;;;;28.55;16.05;;;;;;;7.01;59.56;98949.06;4361633;32;20129;-96
2022/11/21 16:43:26;;;;;;;25.37;14.55;;;;;;;7.17;59.57;98944.28;4357192;32;20093;-96
2022/11/21 16:46:12;;;;;;;25.17;13.10;;;;;;;7.08;59.56;98940.22;4367612;32;20067;-91
2022/11/21 16:48:39;;;;;;;26.75;13.35;;;;;;;7.21;59.58;98950.19;4353169;32;20125;-96
2022/11/21 16:51:18;;;;;;;28.95;17.10;;;;;;;7.12;59.58;98956.53;4362731;32;20130;-95
2022/11/21 16:53:49;;;;;;;41.92;21.92;;;;;;;6.84;59.56;98953.03;4359576;32;20126;-96
2022/11/21 16:56:16;;;;;;;32.08;14.63;;;;;;;6.78;59.55;98948.91;4373824;32;20123;-96
2022/11/21 16:58:42;;;;;;;31.60;17.62;;;;;;;6.92;59.56;98959.72;4347757;32;20387;-96
2022/11/21 17:01:16;;;;;;;34.65;19.17;;;;;;;6.78;59.55;98967.84;4358198;32;20165;-96
2022/11/21 17:03:42;;;;;;;25.85;12.85;;;;;;;6.64;59.54;98966.59;4357526;32;20164;-96
2022/11/21 17:06:09;;;;;;;23.90;11.60;;;;;;;6.69;59.55;98968.12;4345240;32;20974;-96
2022/11/21 17:08:34;;;;;;;22.02;12.07;;;;;;;6.67;59.55;98969.94;4356570;32;20087;-96
2022/11/21 17:11:30;;;;;;;31.50;17.27;;;;;;;6.44;59.54;98974.88;4357640;32;20079;-95
2022/11/21 17:14:02;;;;;;;31.62;18.77;;;;;;;6.76;59.55;98981.72;4371384;32;20082;-96
2022/11/21 17:16:58;;;;;;;29.40;15.55;;;;;;;6.91;59.56;98973.53;4379460;32;20088;-96
2022/11/21 17:19:53;;;;;;;29.95;14.40;;;;;;;6.60;59.55;98978.72;4389981;32;20111;-96
2022/11/21 17:23:43;;;;;;;24.45;15.02;;;;;;;6.55;59.54;98975.44;4366808;32;20132;-96
2022/11/21 17:29:10;;;;;;;27.15;13.80;;;;;;;6.26;59.52;98967.62;4799112;27;20210;-96
2022/11/21 17:31:35;;;;;;;23.70;13.57;;;;;;;6.13;59.52;98975.69;4367366;32;20109;-94
2022/11/21 17:34:00;;;;;;;29.48;16.55;;;;;;;6.14;59.52;98971.37;4368305;32;20106;-93
2022/11/21 17:36:27;;;;;;;29.12;18.08;;;;;;;6.01;59.51;98973.44;4369635;32;20249;-93
2022/11/21 17:38:53;;;;;;;32.63;17.65;;;;;;;6.12;59.51;98980.91;4361992;32;20783;-92
2022/11/21 17:41:19;;;;;;;27.87;16.48;;;;;;;6.17;59.52;98983.41;4340996;32;20474;-92
2022/11/21 17:43:45;;;;;;;27.17;14.07;;;;;;;6.08;59.52;98997.38;4377559;32;20107;-94
2022/11/21 17:46:12;;;;;;;21.23;11.88;;;;;;;6.23;59.52;98997.00;4369148;32;20167;-92
2022/11/21 17:48:37;;;;;;;28.98;13.57;;;;;;;6.27;59.52;98996.03;4372870;32;20473;-92
2022/11/21 17:51:06;;;;;;;24.12;13.35;;;;;;;6.04;59.51;98991.44;4366578;32;20122;-94
2022/11/21 17:53:35;;;;;;;25.52;12.40;;;;;;;6.11;59.51;98989.53;4374416;32;20158;-93
2022/11/21 17:56:00;;;;;;;51.70;22.85;;;;;;;6.40;59.53;98981.88;4381554;32;20169;-94
2022/11/21 17:58:26;;;;;;;108.03;44.83;;;;;;;6.28;59.53;98979.63;4373011;32;20430;-93
2022/11/21 18:00:58;;;;;;;90.32;37.05;;;;;;;6.46;59.54;98981.72;4369018;32;20132;-94
2022/11/21 18:03:23;;;;;;;58.28;27.70;;;;;;;6.26;59.52;98986.56;4367001;32;20111;-94
2022/11/21 18:05:55;;;;;;;55.80;25.80;;;;;;;6.24;59.52;98979.75;4363292;32;20156;-92
2022/11/21 18:08:21;;;;;;;77.35;34.17;;;;;;;6.23;59.53;98994.41;4369515;32;20151;-93